sensor_id;sensor_type;location;lat;lon;timestamp;temperature;humidity
52211;DHT22;38179;52.756;6.906;2023-07-29T00:02:10;18.30;99.90
52211;DHT22;38179;52.756;6.906;2023-07-29T00:04:36;18.40;99.90
52211;DHT22;38179;52.756;6.906;2023-07-29T00:07:02;18.30;99.90
52211;DHT22;38179;52.756;6.906;2023-07-29T00:09:28;18.30;99.90
52211;DHT22;38179;52.756;6.906;2023-07-29T00:11:53;18.30;99.90
52211;DHT22;38179;52.756;6.906;2023-07-29T00:14:19;18.20;99.90
52211;DHT22;38179;52.756;6.906;2023-07-29T00:16:45;18.20;99.90
52211;DHT22;38179;52.756;6.906;2023-07-29T00:19:11;18.10;99.90
52211;DHT22;38179;52.756;6.906;2023-07-29T00:21:37;18.10;99.90
52211;DHT22;38179;52.756;6.906;2023-07-29T00:24:03;18.20;99.90
52211;DHT22;38179;52.756;6.906;2023-07-29T00:26:29;18.20;99.90
52211;DHT22;38179;52.756;6.906;2023-07-29T00:28:56;18.20;99.90
52211;DHT22;38179;52.756;6.906;2023-07-29T00:31:22;18.20;99.90
52211;DHT22;38179;52.756;6.906;2023-07-29T00:33:48;18.20;99.90
52211;DHT22;38179;52.756;6.906;2023-07-29T00:36:14;18.20;99.90
52211;DHT22;38179;52.756;6.906;2023-07-29T00:38:40;18.20;99.90
52211;DHT22;38179;52.756;6.906;2023-07-29T00:41:06;18.20;99.90
52211;DHT22;38179;52.756;6.906;2023-07-29T00:43:32;18.20;99.90
52211;DHT22;38179;52.756;6.906;2023-07-29T00:45:59;18.20;99.90
52211;DHT22;38179;52.756;6.906;2023-07-29T00:48:26;18.10;99.90
52211;DHT22;38179;52.756;6.906;2023-07-29T00:50:52;18.10;99.90
52211;DHT22;38179;52.756;6.906;2023-07-29T00:53:19;18.00;99.90
52211;DHT22;38179;52.756;6.906;2023-07-29T00:55:45;18.10;99.90
52211;DHT22;38179;52.756;6.906;2023-07-29T00:58:11;18.00;99.90
52211;DHT22;38179;52.756;6.906;2023-07-29T01:00:37;18.10;99.90
52211;DHT22;38179;52.756;6.906;2023-07-29T01:03:04;18.10;99.90
52211;DHT22;38179;52.756;6.906;2023-07-29T01:05:36;18.00;99.90
52211;DHT22;38179;52.756;6.906;2023-07-29T01:11:01;18.00;99.90
52211;DHT22;38179;52.756;6.906;2023-07-29T01:13:58;18.00;99.90
52211;DHT22;38179;52.756;6.906;2023-07-29T01:16:52;18.00;99.90
52211;DHT22;38179;52.756;6.906;2023-07-29T01:22:04;17.90;99.90
52211;DHT22;38179;52.756;6.906;2023-07-29T01:24:32;17.90;99.90
52211;DHT22;38179;52.756;6.906;2023-07-29T01:26:58;17.90;99.90
52211;DHT22;38179;52.756;6.906;2023-07-29T01:29:24;17.90;99.90
52211;DHT22;38179;52.756;6.906;2023-07-29T01:31:53;17.90;99.90
52211;DHT22;38179;52.756;6.906;2023-07-29T01:34:28;17.90;99.90
52211;DHT22;38179;52.756;6.906;2023-07-29T01:36:57;17.90;99.90
52211;DHT22;38179;52.756;6.906;2023-07-29T01:39:25;17.90;99.90
52211;DHT22;38179;52.756;6.906;2023-07-29T01:41:53;17.80;99.90
52211;DHT22;38179;52.756;6.906;2023-07-29T01:44:19;17.80;99.90
52211;DHT22;38179;52.756;6.906;2023-07-29T01:46:49;17.80;99.90
52211;DHT22;38179;52.756;6.906;2023-07-29T01:49:15;17.80;99.90
52211;DHT22;38179;52.756;6.906;2023-07-29T01:51:41;17.80;99.90
52211;DHT22;38179;52.756;6.906;2023-07-29T01:54:07;17.70;99.90
52211;DHT22;38179;52.756;6.906;2023-07-29T01:56:33;17.80;99.90
52211;DHT22;38179;52.756;6.906;2023-07-29T01:58:59;17.70;99.90
52211;DHT22;38179;52.756;6.906;2023-07-29T02:01:25;17.70;99.90
52211;DHT22;38179;52.756;6.906;2023-07-29T02:03:50;17.70;99.90
52211;DHT22;38179;52.756;6.906;2023-07-29T02:06:21;17.70;99.90
52211;DHT22;38179;52.756;6.906;2023-07-29T02:08:48;17.70;99.90
52211;DHT22;38179;52.756;6.906;2023-07-29T02:11:14;17.70;99.90
52211;DHT22;38179;52.756;6.906;2023-07-29T02:13:40;17.70;99.90
52211;DHT22;38179;52.756;6.906;2023-07-29T02:16:06;17.60;99.90
52211;DHT22;38179;52.756;6.906;2023-07-29T02:18:32;17.70;99.90
52211;DHT22;38179;52.756;6.906;2023-07-29T02:20:57;17.60;99.90
52211;DHT22;38179;52.756;6.906;2023-07-29T02:23:23;17.60;99.90
52211;DHT22;38179;52.756;6.906;2023-07-29T02:25:50;17.60;99.90
52211;DHT22;38179;52.756;6.906;2023-07-29T02:28:16;17.60;99.90
52211;DHT22;38179;52.756;6.906;2023-07-29T02:30:42;17.60;99.90
52211;DHT22;38179;52.756;6.906;2023-07-29T02:33:10;17.60;99.90
52211;DHT22;38179;52.756;6.906;2023-07-29T02:35:36;17.60;99.90
52211;DHT22;38179;52.756;6.906;2023-07-29T02:38:02;17.60;99.90
52211;DHT22;38179;52.756;6.906;2023-07-29T02:40:28;17.60;99.90
52211;DHT22;38179;52.756;6.906;2023-07-29T02:42:55;17.60;99.90
52211;DHT22;38179;52.756;6.906;2023-07-29T02:45:20;17.60;99.90
52211;DHT22;38179;52.756;6.906;2023-07-29T02:47:46;17.60;99.90
52211;DHT22;38179;52.756;6.906;2023-07-29T02:50:12;17.60;99.90
52211;DHT22;38179;52.756;6.906;2023-07-29T02:52:38;17.60;99.90
52211;DHT22;38179;52.756;6.906;2023-07-29T02:55:05;17.50;99.90
52211;DHT22;38179;52.756;6.906;2023-07-29T02:57:31;17.60;99.90
52211;DHT22;38179;52.756;6.906;2023-07-29T02:59:57;17.60;99.90
52211;DHT22;38179;52.756;6.906;2023-07-29T03:02:22;17.50;99.90
52211;DHT22;38179;52.756;6.906;2023-07-29T03:04:48;17.50;99.90
52211;DHT22;38179;52.756;6.906;2023-07-29T03:07:14;17.50;99.90
52211;DHT22;38179;52.756;6.906;2023-07-29T03:09:40;17.50;99.90
52211;DHT22;38179;52.756;6.906;2023-07-29T03:12:08;17.50;99.90
52211;DHT22;38179;52.756;6.906;2023-07-29T03:14:33;17.40;99.90
52211;DHT22;38179;52.756;6.906;2023-07-29T03:17:03;17.40;99.90
52211;DHT22;38179;52.756;6.906;2023-07-29T03:19:30;17.40;99.90
52211;DHT22;38179;52.756;6.906;2023-07-29T03:21:56;17.40;99.90
52211;DHT22;38179;52.756;6.906;2023-07-29T03:24:21;17.30;99.90
52211;DHT22;38179;52.756;6.906;2023-07-29T03:26:48;17.30;99.90
52211;DHT22;38179;52.756;6.906;2023-07-29T03:29:14;17.30;99.90
52211;DHT22;38179;52.756;6.906;2023-07-29T03:31:39;17.30;99.90
52211;DHT22;38179;52.756;6.906;2023-07-29T03:34:05;17.30;99.90
52211;DHT22;38179;52.756;6.906;2023-07-29T03:36:31;17.30;99.90
52211;DHT22;38179;52.756;6.906;2023-07-29T03:38:57;17.20;99.90
52211;DHT22;38179;52.756;6.906;2023-07-29T03:41:24;17.20;99.90
52211;DHT22;38179;52.756;6.906;2023-07-29T03:43:49;17.10;99.90
52211;DHT22;38179;52.756;6.906;2023-07-29T03:46:15;17.10;99.90
52211;DHT22;38179;52.756;6.906;2023-07-29T03:48:45;17.10;99.90
52211;DHT22;38179;52.756;6.906;2023-07-29T03:51:11;17.10;99.90
52211;DHT22;38179;52.756;6.906;2023-07-29T03:53:37;17.10;99.90
52211;DHT22;38179;52.756;6.906;2023-07-29T03:56:03;17.00;99.90
52211;DHT22;38179;52.756;6.906;2023-07-29T03:58:28;17.00;99.90
52211;DHT22;38179;52.756;6.906;2023-07-29T04:00:54;17.00;99.90
52211;DHT22;38179;52.756;6.906;2023-07-29T04:03:20;17.00;99.90
52211;DHT22;38179;52.756;6.906;2023-07-29T04:05:46;17.00;99.90
52211;DHT22;38179;52.756;6.906;2023-07-29T04:08:12;17.00;99.90
52211;DHT22;38179;52.756;6.906;2023-07-29T04:10:38;17.00;99.90
52211;DHT22;38179;52.756;6.906;2023-07-29T04:13:04;17.00;99.90
52211;DHT22;38179;52.756;6.906;2023-07-29T04:15:30;17.00;99.90
52211;DHT22;38179;52.756;6.906;2023-07-29T04:17:57;16.90;99.90
52211;DHT22;38179;52.756;6.906;2023-07-29T04:20:22;16.90;99.90
52211;DHT22;38179;52.756;6.906;2023-07-29T04:22:48;16.90;99.90
52211;DHT22;38179;52.756;6.906;2023-07-29T04:25:14;16.90;99.90
52211;DHT22;38179;52.756;6.906;2023-07-29T04:27:40;16.90;99.90
52211;DHT22;38179;52.756;6.906;2023-07-29T04:30:06;16.90;99.90
52211;DHT22;38179;52.756;6.906;2023-07-29T04:32:33;16.90;99.90
52211;DHT22;38179;52.756;6.906;2023-07-29T04:35:00;17.00;99.90
52211;DHT22;38179;52.756;6.906;2023-07-29T04:37:26;16.90;99.90
52211;DHT22;38179;52.756;6.906;2023-07-29T04:39:52;16.90;99.90
52211;DHT22;38179;52.756;6.906;2023-07-29T04:42:18;16.90;99.90
52211;DHT22;38179;52.756;6.906;2023-07-29T04:44:44;16.90;99.90
52211;DHT22;38179;52.756;6.906;2023-07-29T04:47:13;17.00;99.90
52211;DHT22;38179;52.756;6.906;2023-07-29T04:49:39;17.00;99.90
52211;DHT22;38179;52.756;6.906;2023-07-29T04:52:05;16.90;99.90
52211;DHT22;38179;52.756;6.906;2023-07-29T04:54:31;16.90;99.90
52211;DHT22;38179;52.756;6.906;2023-07-29T04:56:57;16.90;99.90
52211;DHT22;38179;52.756;6.906;2023-07-29T04:59:23;16.90;99.90
52211;DHT22;38179;52.756;6.906;2023-07-29T05:01:49;17.00;99.90
52211;DHT22;38179;52.756;6.906;2023-07-29T05:04:15;16.90;99.90
52211;DHT22;38179;52.756;6.906;2023-07-29T05:06:41;16.90;99.90
52211;DHT22;38179;52.756;6.906;2023-07-29T05:09:15;16.90;99.90
52211;DHT22;38179;52.756;6.906;2023-07-29T05:11:41;16.90;99.90
52211;DHT22;38179;52.756;6.906;2023-07-29T05:14:07;17.00;99.90
52211;DHT22;38179;52.756;6.906;2023-07-29T05:16:35;16.90;99.90
52211;DHT22;38179;52.756;6.906;2023-07-29T05:19:01;17.00;99.90
52211;DHT22;38179;52.756;6.906;2023-07-29T05:21:26;16.90;99.90
52211;DHT22;38179;52.756;6.906;2023-07-29T05:23:52;16.90;99.90
52211;DHT22;38179;52.756;6.906;2023-07-29T05:26:18;16.90;99.90
52211;DHT22;38179;52.756;6.906;2023-07-29T05:28:44;16.90;99.90
52211;DHT22;38179;52.756;6.906;2023-07-29T05:31:10;16.90;99.90
52211;DHT22;38179;52.756;6.906;2023-07-29T05:33:36;16.90;99.90
52211;DHT22;38179;52.756;6.906;2023-07-29T05:36:02;16.90;99.90
52211;DHT22;38179;52.756;6.906;2023-07-29T05:38:28;16.90;99.90
52211;DHT22;38179;52.756;6.906;2023-07-29T05:40:54;16.90;99.90
52211;DHT22;38179;52.756;6.906;2023-07-29T05:43:20;17.00;99.90
52211;DHT22;38179;52.756;6.906;2023-07-29T05:45:46;17.00;99.90
52211;DHT22;38179;52.756;6.906;2023-07-29T05:48:11;17.00;99.90
52211;DHT22;38179;52.756;6.906;2023-07-29T05:50:37;17.00;99.90
52211;DHT22;38179;52.756;6.906;2023-07-29T05:53:03;17.00;99.90
52211;DHT22;38179;52.756;6.906;2023-07-29T05:55:29;17.00;99.90
52211;DHT22;38179;52.756;6.906;2023-07-29T05:57:55;17.10;99.90
52211;DHT22;38179;52.756;6.906;2023-07-29T06:00:21;17.00;99.90
52211;DHT22;38179;52.756;6.906;2023-07-29T06:02:47;17.10;99.90
52211;DHT22;38179;52.756;6.906;2023-07-29T06:05:14;17.00;99.90
52211;DHT22;38179;52.756;6.906;2023-07-29T06:07:40;17.10;99.90
52211;DHT22;38179;52.756;6.906;2023-07-29T06:10:10;17.10;99.90
52211;DHT22;38179;52.756;6.906;2023-07-29T06:12:39;17.10;99.90
52211;DHT22;38179;52.756;6.906;2023-07-29T06:15:05;17.10;99.90
52211;DHT22;38179;52.756;6.906;2023-07-29T06:17:31;17.20;99.90
52211;DHT22;38179;52.756;6.906;2023-07-29T06:19:57;17.20;99.90
52211;DHT22;38179;52.756;6.906;2023-07-29T06:22:23;17.20;99.90
52211;DHT22;38179;52.756;6.906;2023-07-29T06:24:49;17.20;99.90
52211;DHT22;38179;52.756;6.906;2023-07-29T06:27:15;17.30;99.90
52211;DHT22;38179;52.756;6.906;2023-07-29T06:29:43;17.30;99.90
52211;DHT22;38179;52.756;6.906;2023-07-29T06:32:09;17.40;99.90
52211;DHT22;38179;52.756;6.906;2023-07-29T06:34:35;17.40;99.90
52211;DHT22;38179;52.756;6.906;2023-07-29T06:37:01;17.40;99.90
52211;DHT22;38179;52.756;6.906;2023-07-29T06:39:27;17.50;99.90
52211;DHT22;38179;52.756;6.906;2023-07-29T06:41:53;17.50;99.90
52211;DHT22;38179;52.756;6.906;2023-07-29T06:44:19;17.50;99.90
52211;DHT22;38179;52.756;6.906;2023-07-29T06:46:45;17.50;99.90
52211;DHT22;38179;52.756;6.906;2023-07-29T06:49:11;17.50;99.90
52211;DHT22;38179;52.756;6.906;2023-07-29T06:51:37;17.50;99.90
52211;DHT22;38179;52.756;6.906;2023-07-29T06:54:04;17.50;99.90
52211;DHT22;38179;52.756;6.906;2023-07-29T06:56:30;17.50;99.90
52211;DHT22;38179;52.756;6.906;2023-07-29T06:58:55;17.50;99.90
52211;DHT22;38179;52.756;6.906;2023-07-29T07:01:22;17.60;99.90
52211;DHT22;38179;52.756;6.906;2023-07-29T07:03:48;17.60;99.90
52211;DHT22;38179;52.756;6.906;2023-07-29T07:06:14;17.60;99.90
52211;DHT22;38179;52.756;6.906;2023-07-29T07:08:40;17.70;99.90
52211;DHT22;38179;52.756;6.906;2023-07-29T07:11:07;17.70;99.90
52211;DHT22;38179;52.756;6.906;2023-07-29T07:13:33;17.80;99.90
52211;DHT22;38179;52.756;6.906;2023-07-29T07:15:59;17.80;99.90
52211;DHT22;38179;52.756;6.906;2023-07-29T07:18:25;17.80;99.90
52211;DHT22;38179;52.756;6.906;2023-07-29T07:20:51;17.80;99.90
52211;DHT22;38179;52.756;6.906;2023-07-29T07:23:18;17.90;99.90
52211;DHT22;38179;52.756;6.906;2023-07-29T07:25:44;17.90;99.90
52211;DHT22;38179;52.756;6.906;2023-07-29T07:28:10;17.90;99.90
52211;DHT22;38179;52.756;6.906;2023-07-29T07:30:40;17.90;99.90
52211;DHT22;38179;52.756;6.906;2023-07-29T07:33:07;17.90;99.90
52211;DHT22;38179;52.756;6.906;2023-07-29T07:35:36;17.90;99.90
52211;DHT22;38179;52.756;6.906;2023-07-29T07:38:02;17.90;99.90
52211;DHT22;38179;52.756;6.906;2023-07-29T07:40:31;18.00;99.90
52211;DHT22;38179;52.756;6.906;2023-07-29T07:42:57;18.00;99.90
52211;DHT22;38179;52.756;6.906;2023-07-29T07:45:22;18.00;99.90
52211;DHT22;38179;52.756;6.906;2023-07-29T07:47:48;18.00;99.90
52211;DHT22;38179;52.756;6.906;2023-07-29T07:50:16;18.00;99.90
52211;DHT22;38179;52.756;6.906;2023-07-29T07:52:42;18.10;99.90
52211;DHT22;38179;52.756;6.906;2023-07-29T07:55:08;18.20;99.90
52211;DHT22;38179;52.756;6.906;2023-07-29T07:57:34;18.20;99.90
52211;DHT22;38179;52.756;6.906;2023-07-29T08:00:00;18.20;99.90
52211;DHT22;38179;52.756;6.906;2023-07-29T08:02:25;18.20;99.90
52211;DHT22;38179;52.756;6.906;2023-07-29T08:04:51;18.20;99.90
52211;DHT22;38179;52.756;6.906;2023-07-29T08:07:17;18.30;99.90
52211;DHT22;38179;52.756;6.906;2023-07-29T08:09:44;18.40;99.90
52211;DHT22;38179;52.756;6.906;2023-07-29T08:12:09;18.40;99.90
52211;DHT22;38179;52.756;6.906;2023-07-29T08:14:35;18.50;99.90
52211;DHT22;38179;52.756;6.906;2023-07-29T08:17:01;18.60;99.90
52211;DHT22;38179;52.756;6.906;2023-07-29T08:19:28;18.60;99.90
52211;DHT22;38179;52.756;6.906;2023-07-29T08:21:54;18.60;99.90
52211;DHT22;38179;52.756;6.906;2023-07-29T08:24:20;18.60;99.90
52211;DHT22;38179;52.756;6.906;2023-07-29T08:26:46;18.60;99.90
52211;DHT22;38179;52.756;6.906;2023-07-29T08:29:12;18.60;99.90
52211;DHT22;38179;52.756;6.906;2023-07-29T08:31:38;18.60;99.90
52211;DHT22;38179;52.756;6.906;2023-07-29T08:34:04;18.70;99.90
52211;DHT22;38179;52.756;6.906;2023-07-29T08:36:30;18.60;99.90
52211;DHT22;38179;52.756;6.906;2023-07-29T08:38:56;18.70;99.90
52211;DHT22;38179;52.756;6.906;2023-07-29T08:41:26;18.80;99.90
52211;DHT22;38179;52.756;6.906;2023-07-29T08:44:12;18.90;99.90
52211;DHT22;38179;52.756;6.906;2023-07-29T08:46:41;18.90;99.90
52211;DHT22;38179;52.756;6.906;2023-07-29T08:49:07;18.90;99.90
52211;DHT22;38179;52.756;6.906;2023-07-29T08:51:34;19.00;99.90
52211;DHT22;38179;52.756;6.906;2023-07-29T08:54:01;19.00;99.90
52211;DHT22;38179;52.756;6.906;2023-07-29T08:56:27;19.10;99.90
52211;DHT22;38179;52.756;6.906;2023-07-29T08:58:56;19.10;99.90
52211;DHT22;38179;52.756;6.906;2023-07-29T09:01:22;19.20;99.90
52211;DHT22;38179;52.756;6.906;2023-07-29T09:03:48;19.20;99.90
52211;DHT22;38179;52.756;6.906;2023-07-29T09:06:14;19.10;99.90
52211;DHT22;38179;52.756;6.906;2023-07-29T09:08:41;19.10;99.90
52211;DHT22;38179;52.756;6.906;2023-07-29T09:11:08;19.10;99.90
52211;DHT22;38179;52.756;6.906;2023-07-29T09:13:35;19.20;99.90
52211;DHT22;38179;52.756;6.906;2023-07-29T09:16:01;19.20;99.90
52211;DHT22;38179;52.756;6.906;2023-07-29T09:18:27;19.30;99.90
52211;DHT22;38179;52.756;6.906;2023-07-29T09:20:54;19.40;99.90
52211;DHT22;38179;52.756;6.906;2023-07-29T09:23:24;19.50;99.90
52211;DHT22;38179;52.756;6.906;2023-07-29T09:25:50;19.50;99.90
52211;DHT22;38179;52.756;6.906;2023-07-29T09:28:16;19.50;99.90
52211;DHT22;38179;52.756;6.906;2023-07-29T09:30:44;19.60;99.90
52211;DHT22;38179;52.756;6.906;2023-07-29T09:33:10;19.70;99.90
52211;DHT22;38179;52.756;6.906;2023-07-29T09:35:37;19.80;99.90
52211;DHT22;38179;52.756;6.906;2023-07-29T09:38:07;19.80;99.90
52211;DHT22;38179;52.756;6.906;2023-07-29T09:40:36;19.80;99.90
52211;DHT22;38179;52.756;6.906;2023-07-29T09:43:04;19.80;99.90
52211;DHT22;38179;52.756;6.906;2023-07-29T09:45:33;19.80;99.90
52211;DHT22;38179;52.756;6.906;2023-07-29T09:47:59;19.90;99.90
52211;DHT22;38179;52.756;6.906;2023-07-29T09:50:25;19.90;99.90
52211;DHT22;38179;52.756;6.906;2023-07-29T09:52:53;19.90;99.90
52211;DHT22;38179;52.756;6.906;2023-07-29T09:55:23;20.10;99.90
52211;DHT22;38179;52.756;6.906;2023-07-29T09:57:59;20.10;99.90
52211;DHT22;38179;52.756;6.906;2023-07-29T10:00:31;20.00;99.90
52211;DHT22;38179;52.756;6.906;2023-07-29T10:02:58;20.00;99.90
52211;DHT22;38179;52.756;6.906;2023-07-29T10:05:28;20.00;99.90
52211;DHT22;38179;52.756;6.906;2023-07-29T10:07:55;20.00;99.90
52211;DHT22;38179;52.756;6.906;2023-07-29T10:10:22;20.10;99.90
52211;DHT22;38179;52.756;6.906;2023-07-29T10:12:54;20.20;99.90
52211;DHT22;38179;52.756;6.906;2023-07-29T10:15:20;20.30;99.90
52211;DHT22;38179;52.756;6.906;2023-07-29T10:17:47;20.40;99.90
52211;DHT22;38179;52.756;6.906;2023-07-29T10:20:13;20.40;99.90
52211;DHT22;38179;52.756;6.906;2023-07-29T10:22:41;20.40;99.90
52211;DHT22;38179;52.756;6.906;2023-07-29T10:25:10;20.50;99.90
52211;DHT22;38179;52.756;6.906;2023-07-29T10:27:49;20.50;99.90
52211;DHT22;38179;52.756;6.906;2023-07-29T10:30:18;20.60;99.90
52211;DHT22;38179;52.756;6.906;2023-07-29T10:32:45;20.60;99.90
52211;DHT22;38179;52.756;6.906;2023-07-29T10:35:15;20.60;99.90
52211;DHT22;38179;52.756;6.906;2023-07-29T10:37:42;20.50;99.90
52211;DHT22;38179;52.756;6.906;2023-07-29T10:40:10;20.50;99.90
52211;DHT22;38179;52.756;6.906;2023-07-29T10:42:37;20.50;99.90
52211;DHT22;38179;52.756;6.906;2023-07-29T10:45:20;20.50;99.90
52211;DHT22;38179;52.756;6.906;2023-07-29T10:47:47;20.60;99.90
52211;DHT22;38179;52.756;6.906;2023-07-29T10:50:21;20.60;99.90
52211;DHT22;38179;52.756;6.906;2023-07-29T10:52:52;20.70;99.90
52211;DHT22;38179;52.756;6.906;2023-07-29T10:55:35;20.80;99.90
52211;DHT22;38179;52.756;6.906;2023-07-29T10:58:15;20.90;99.90
52211;DHT22;38179;52.756;6.906;2023-07-29T11:00:46;20.80;99.90
52211;DHT22;38179;52.756;6.906;2023-07-29T11:03:13;20.70;99.90
52211;DHT22;38179;52.756;6.906;2023-07-29T11:05:52;20.60;99.90
52211;DHT22;38179;52.756;6.906;2023-07-29T11:13:27;20.80;99.90
52211;DHT22;38179;52.756;6.906;2023-07-29T11:15:54;20.80;99.90
52211;DHT22;38179;52.756;6.906;2023-07-29T11:18:21;20.70;99.90
52211;DHT22;38179;52.756;6.906;2023-07-29T11:20:46;20.70;99.90
52211;DHT22;38179;52.756;6.906;2023-07-29T11:23:13;20.70;99.90
52211;DHT22;38179;52.756;6.906;2023-07-29T11:25:39;20.60;99.90
52211;DHT22;38179;52.756;6.906;2023-07-29T11:28:05;20.70;99.90
52211;DHT22;38179;52.756;6.906;2023-07-29T11:30:31;20.70;99.90
52211;DHT22;38179;52.756;6.906;2023-07-29T11:32:59;20.70;99.90
52211;DHT22;38179;52.756;6.906;2023-07-29T11:35:25;20.80;99.90
52211;DHT22;38179;52.756;6.906;2023-07-29T11:37:54;20.80;99.90
52211;DHT22;38179;52.756;6.906;2023-07-29T11:40:21;20.80;99.90
52211;DHT22;38179;52.756;6.906;2023-07-29T11:42:49;20.90;99.90
52211;DHT22;38179;52.756;6.906;2023-07-29T11:45:16;21.00;99.90
52211;DHT22;38179;52.756;6.906;2023-07-29T11:47:42;21.10;99.90
52211;DHT22;38179;52.756;6.906;2023-07-29T11:50:10;21.20;99.90
52211;DHT22;38179;52.756;6.906;2023-07-29T11:52:37;21.30;99.90
52211;DHT22;38179;52.756;6.906;2023-07-29T11:55:04;21.30;99.90
52211;DHT22;38179;52.756;6.906;2023-07-29T11:57:31;21.20;99.90
52211;DHT22;38179;52.756;6.906;2023-07-29T12:00:03;21.10;99.90
52211;DHT22;38179;52.756;6.906;2023-07-29T12:02:30;20.90;99.90
52211;DHT22;38179;52.756;6.906;2023-07-29T12:04:57;20.90;99.90
52211;DHT22;38179;52.756;6.906;2023-07-29T12:07:23;20.90;99.90
52211;DHT22;38179;52.756;6.906;2023-07-29T12:09:50;20.90;99.90
52211;DHT22;38179;52.756;6.906;2023-07-29T12:12:16;21.00;99.90
52211;DHT22;38179;52.756;6.906;2023-07-29T12:14:45;21.10;99.90
52211;DHT22;38179;52.756;6.906;2023-07-29T12:17:14;21.10;99.90
52211;DHT22;38179;52.756;6.906;2023-07-29T12:19:41;21.10;99.90
52211;DHT22;38179;52.756;6.906;2023-07-29T12:22:09;21.10;99.90
52211;DHT22;38179;52.756;6.906;2023-07-29T12:24:38;21.10;99.90
52211;DHT22;38179;52.756;6.906;2023-07-29T12:27:04;21.30;99.90
52211;DHT22;38179;52.756;6.906;2023-07-29T12:29:30;21.30;99.90
52211;DHT22;38179;52.756;6.906;2023-07-29T12:31:58;21.30;99.90
52211;DHT22;38179;52.756;6.906;2023-07-29T12:34:26;21.40;99.90
52211;DHT22;38179;52.756;6.906;2023-07-29T12:36:56;21.60;99.90
52211;DHT22;38179;52.756;6.906;2023-07-29T12:39:23;21.80;99.90
52211;DHT22;38179;52.756;6.906;2023-07-29T12:41:50;21.80;99.90
52211;DHT22;38179;52.756;6.906;2023-07-29T12:44:17;21.90;99.90
52211;DHT22;38179;52.756;6.906;2023-07-29T12:46:43;21.90;99.90
52211;DHT22;38179;52.756;6.906;2023-07-29T12:49:10;22.00;99.90
52211;DHT22;38179;52.756;6.906;2023-07-29T12:51:36;22.00;99.90
52211;DHT22;38179;52.756;6.906;2023-07-29T12:54:04;21.80;99.90
52211;DHT22;38179;52.756;6.906;2023-07-29T12:56:31;21.80;99.90
52211;DHT22;38179;52.756;6.906;2023-07-29T12:58:57;21.90;99.90
52211;DHT22;38179;52.756;6.906;2023-07-29T13:01:24;22.10;99.90
52211;DHT22;38179;52.756;6.906;2023-07-29T13:03:50;22.20;99.90
52211;DHT22;38179;52.756;6.906;2023-07-29T13:06:19;22.20;99.90
52211;DHT22;38179;52.756;6.906;2023-07-29T13:08:46;22.10;99.90
52211;DHT22;38179;52.756;6.906;2023-07-29T13:11:12;22.00;99.90
52211;DHT22;38179;52.756;6.906;2023-07-29T13:13:38;22.00;99.90
52211;DHT22;38179;52.756;6.906;2023-07-29T13:16:04;21.80;99.90
52211;DHT22;38179;52.756;6.906;2023-07-29T13:18:32;21.80;99.90
52211;DHT22;38179;52.756;6.906;2023-07-29T13:20:58;21.70;99.90
52211;DHT22;38179;52.756;6.906;2023-07-29T13:23:24;21.60;99.90
52211;DHT22;38179;52.756;6.906;2023-07-29T13:25:51;21.60;99.90
52211;DHT22;38179;52.756;6.906;2023-07-29T13:28:17;21.50;99.90
52211;DHT22;38179;52.756;6.906;2023-07-29T13:30:44;21.50;99.90
52211;DHT22;38179;52.756;6.906;2023-07-29T13:33:10;21.50;99.90
52211;DHT22;38179;52.756;6.906;2023-07-29T13:35:37;21.60;99.90
52211;DHT22;38179;52.756;6.906;2023-07-29T13:38:03;21.80;99.90
52211;DHT22;38179;52.756;6.906;2023-07-29T13:40:29;21.90;99.90
52211;DHT22;38179;52.756;6.906;2023-07-29T13:42:55;21.90;99.90
52211;DHT22;38179;52.756;6.906;2023-07-29T13:45:21;21.90;99.90
52211;DHT22;38179;52.756;6.906;2023-07-29T13:47:50;21.90;99.90
52211;DHT22;38179;52.756;6.906;2023-07-29T13:50:17;21.80;99.90
52211;DHT22;38179;52.756;6.906;2023-07-29T13:52:43;21.70;99.90
52211;DHT22;38179;52.756;6.906;2023-07-29T13:55:10;21.80;99.90
52211;DHT22;38179;52.756;6.906;2023-07-29T13:57:37;22.00;99.90
52211;DHT22;38179;52.756;6.906;2023-07-29T14:00:05;21.90;99.90
52211;DHT22;38179;52.756;6.906;2023-07-29T14:02:32;21.90;99.90
52211;DHT22;38179;52.756;6.906;2023-07-29T14:04:58;21.90;99.90
52211;DHT22;38179;52.756;6.906;2023-07-29T14:07:24;22.00;99.90
52211;DHT22;38179;52.756;6.906;2023-07-29T14:09:50;22.00;99.90
52211;DHT22;38179;52.756;6.906;2023-07-29T14:12:16;22.10;99.90
52211;DHT22;38179;52.756;6.906;2023-07-29T14:14:42;22.20;99.90
52211;DHT22;38179;52.756;6.906;2023-07-29T14:17:08;22.30;99.90
52211;DHT22;38179;52.756;6.906;2023-07-29T14:19:37;22.10;99.90
52211;DHT22;38179;52.756;6.906;2023-07-29T14:22:03;22.00;99.90
52211;DHT22;38179;52.756;6.906;2023-07-29T14:24:29;21.80;99.90
52211;DHT22;38179;52.756;6.906;2023-07-29T14:26:57;21.70;99.90
52211;DHT22;38179;52.756;6.906;2023-07-29T14:29:22;21.50;99.90
52211;DHT22;38179;52.756;6.906;2023-07-29T14:31:48;21.40;99.90
52211;DHT22;38179;52.756;6.906;2023-07-29T14:34:14;21.20;99.90
52211;DHT22;38179;52.756;6.906;2023-07-29T14:36:40;21.10;99.90
52211;DHT22;38179;52.756;6.906;2023-07-29T14:39:06;20.90;99.90
52211;DHT22;38179;52.756;6.906;2023-07-29T14:41:32;20.90;99.90
52211;DHT22;38179;52.756;6.906;2023-07-29T14:43:58;20.90;99.90
52211;DHT22;38179;52.756;6.906;2023-07-29T14:46:24;20.80;99.90
52211;DHT22;38179;52.756;6.906;2023-07-29T14:48:50;20.80;99.90
52211;DHT22;38179;52.756;6.906;2023-07-29T14:51:17;20.80;99.90
52211;DHT22;38179;52.756;6.906;2023-07-29T14:53:44;20.70;99.90
52211;DHT22;38179;52.756;6.906;2023-07-29T14:56:10;20.60;99.90
52211;DHT22;38179;52.756;6.906;2023-07-29T14:58:36;20.60;99.90
52211;DHT22;38179;52.756;6.906;2023-07-29T15:01:02;20.50;99.90
52211;DHT22;38179;52.756;6.906;2023-07-29T15:03:28;20.40;99.90
52211;DHT22;38179;52.756;6.906;2023-07-29T15:05:54;20.30;99.90
52211;DHT22;38179;52.756;6.906;2023-07-29T15:08:19;20.10;99.90
52211;DHT22;38179;52.756;6.906;2023-07-29T15:10:48;20.10;99.90
52211;DHT22;38179;52.756;6.906;2023-07-29T15:13:14;19.90;99.90
52211;DHT22;38179;52.756;6.906;2023-07-29T15:15:41;19.70;99.90
52211;DHT22;38179;52.756;6.906;2023-07-29T15:18:07;19.50;99.90
52211;DHT22;38179;52.756;6.906;2023-07-29T15:20:33;19.30;99.90
52211;DHT22;38179;52.756;6.906;2023-07-29T15:22:59;19.20;99.90
52211;DHT22;38179;52.756;6.906;2023-07-29T15:25:25;19.20;99.90
52211;DHT22;38179;52.756;6.906;2023-07-29T15:27:51;19.40;99.90
52211;DHT22;38179;52.756;6.906;2023-07-29T15:30:17;19.70;99.90
52211;DHT22;38179;52.756;6.906;2023-07-29T15:32:43;19.90;99.90
52211;DHT22;38179;52.756;6.906;2023-07-29T15:35:11;20.10;99.90
52211;DHT22;38179;52.756;6.906;2023-07-29T15:37:37;20.40;99.90
52211;DHT22;38179;52.756;6.906;2023-07-29T15:40:03;20.60;99.90